FW1047 Weather Reports


Display with metric or nautical units.
time (UTC)temp
F
wind
direction
speed
MPH
gust
MPH
rain 1hr
in
rain 24hr
in
rain mn
in
humidity
%
barometer
mb
20201204011520 40 247 0.0 1.0 0.00 0.00 0.00 64 1019.6
20201204010048 39 193 0.0 2.0 0.00 0.00 0.00 64 1019.6
20201204004514 39 195 0.0 3.0 0.00 0.00 0.00 63 1019.8
20201204003026 38 259 0.0 0.0 0.00 0.00 0.00 66 1019.7
20201204001518 38 204 0.0 2.0 0.00 0.00 0.00 67 1019.7
20201204000010 37 243 0.0 0.0 0.00 0.00 0.00 66 1019.5
20201203234714 37 243 0.0 0.0 0.00 0.00 0.00 66 1019.5
20201203233227 36 236 0.0 0.0 0.00 0.00 0.00 68 1019.2
20201203231658 36 236 0.0 0.0 0.00 0.00 0.00 71 1019.2
20201203230145 36 238 0.0 0.0 0.00 0.00 0.00 68 1019.3
20201203224625 36 238 0.0 0.0 0.00 0.00 0.00 71 1019.1
20201203223155 37 280 0.0 1.0 0.00 0.00 0.00 68 1019.2
20201203221707 38 260 0.0 0.0 0.00 0.00 0.00 66 1019.1
20201203220134 40 259 0.0 1.0 0.00 0.00 0.00 64 1019.3
20201203214643 41 261 0.0 0.0 0.00 0.00 0.00 61 1019.2
20201203213232 42 262 0.0 2.0 0.00 0.00 0.00 58 1019.1
20201203211705 44 271 0.0 1.0 0.00 0.00 0.00 55 1018.9
20201203210134 45 187 0.0 2.0 0.00 0.00 0.00 51 1019.0
20201203204647 46 253 0.0 7.0 0.00 0.00 0.00 50 1018.9
20201203203236 47 286 0.0 4.0 0.00 0.00 0.00 49 1018.9
20201203201604 48 250 0.0 4.0 0.00 0.00 0.00 47 1019.1
20201203200223 49 184 1.0 4.0 0.00 0.00 0.00 46 1019.0
20201203194626 50 136 0.0 3.0 0.00 0.00 0.00 45 1018.9
20201203193129 50 150 1.0 5.0 0.00 0.00 0.00 43 1018.9
20201203190115 51 162 2.0 6.0 0.00 0.00 0.00 45 1018.7
20201203184651 51 278 0.0 5.0 0.00 0.00 0.00 46 1018.6
20201203183111 51 207 1.0 5.0 0.00 0.00 0.00 45 1018.8
20201203181734 51 198 1.0 3.0 0.00 0.00 0.00 46 1018.8
20201203180113 49 150 1.0 4.0 0.00 0.00 0.00 50 1019.0
20201203174543 48 146 1.0 5.0 0.00 0.00 0.00 51 1019.1
20201203173052 48 219 1.0 5.0 0.00 0.00 0.00 52 1019.4
20201203171606 47 168 1.0 4.0 0.00 0.00 0.00 54 1019.5
20201203170110 46 165 0.0 5.0 0.00 0.00 0.00 57 1019.6
20201203164558 46 159 1.0 3.0 0.00 0.00 0.00 57 1019.9
20201203163040 45 168 1.0 4.0 0.00 0.00 0.00 58 1020.0
20201203161550 44 198 0.0 4.0 0.00 0.00 0.00 60 1020.4
20201203160044 43 133 1.0 3.0 0.00 0.00 0.00 62 1020.6
20201203154606 42 205 1.0 5.0 0.00 0.00 0.00 62 1020.8
20201203153028 42 273 0.0 3.0 0.00 0.00 0.00 64 1021.1
20201203151535 41 247 1.0 4.0 0.00 0.00 0.00 65 1021.1
20201203150028 40 165 0.0 5.0 0.00 0.00 0.00 66 1021.2
20201203144514 39 278 1.0 4.0 0.00 0.00 0.00 68 1021.3
20201203143240 38 131 0.0 3.0 0.00 0.00 0.00 71 1021.1
20201203141735 37 221 0.0 4.0 0.00 0.00 0.00 73 1020.9
20201203140214 35 302 1.0 5.0 0.00 0.00 0.00 75 1020.7
20201203134714 34 300 0.0 2.0 0.00 0.00 0.00 78 1020.9
20201203133201 33 73 0.0 1.0 0.00 0.00 0.00 79 1020.8
20201203131619 32 309 0.0 3.0 0.00 0.00 0.00 81 1020.8
20201203130105 31 292 0.0 3.0 0.00 0.00 0.00 83 1020.7
20201203124621 31 274 0.0 3.0 0.00 0.00 0.00 84 1020.8
20201203123055 30 257 0.0 5.0 0.00 0.00 0.00 85 1020.9
20201203120147 25 220 0.0 1.0 0.00 0.00 0.00 94 1020.8
20201203114657 25 187 0.0 0.0 0.00 0.00 0.00 94 1020.6
20201203113226 24 186 0.0 0.0 0.00 0.00 0.00 93 1020.5
20201203111558 24 211 0.0 0.0 0.00 0.00 0.00 93 1020.4
20201203110124 24 212 0.0 0.0 0.00 0.00 0.00 92 1020.3
20201203104558 25 212 0.0 0.0 0.00 0.00 0.00 92 1019.9
20201203103112 24 212 0.0 0.0 0.00 0.00 0.00 92 1019.7
20201203101603 25 217 0.0 0.0 0.00 0.00 0.00 90 1019.5
20201203100111 25 217 0.0 0.0 0.00 0.00 0.00 89 1019.4
20201203094549 26 217 0.0 0.0 0.00 0.00 0.00 89 1019.2
20201203093042 26 217 0.0 0.0 0.00 0.00 0.00 90 1019.3
20201203091627 27 217 0.0 0.0 0.00 0.00 0.00 89 1019.4
20201203090050 27 217 0.0 0.0 0.00 0.00 0.00 89 1019.4
20201203084544 26 205 0.0 0.0 0.00 0.00 0.00 91 1019.4
20201203083023 26 205 0.0 0.0 0.00 0.00 0.00 91 1019.2
20201203081524 26 205 0.0 0.0 0.00 0.00 0.00 90 1019.0
20201203080022 27 205 0.0 0.0 0.00 0.00 0.00 89 1018.9
20201203074518 27 205 0.0 0.0 0.00 0.00 0.00 88 1018.8
20201203073025 27 205 0.0 0.0 0.00 0.00 0.00 88 1018.7
20201203071600 28 179 0.0 0.0 0.00 0.00 0.00 87 1018.7
20201203064627 29 203 0.0 2.0 0.00 0.00 0.00 83 1018.3
20201203063148 30 227 0.0 1.0 0.00 0.00 0.00 80 1018.2
20201203061626 31 221 0.0 1.0 0.00 0.00 0.00 78 1018.1
20201203060135 32 224 0.0 1.0 0.00 0.00 0.00 75 1018.2
20201203054630 34 302 0.0 0.0 0.00 0.00 0.00 72 1018.0
20201203053113 34 302 0.0 1.0 0.00 0.00 0.00 70 1018.0
20201203051617 34 309 0.0 2.0 0.00 0.00 0.00 70 1017.8
20201203050140 35 340 0.0 2.0 0.00 0.00 0.00 69 1017.8
20201203044711 35 307 0.0 2.0 0.00 0.00 0.00 69 1017.5
20201203043136 36 228 0.0 1.0 0.00 0.00 0.00 67 1017.5
20201203041557 36 322 0.0 2.0 0.00 0.00 0.00 67 1017.3
20201203040115 36 307 1.0 5.0 0.00 0.00 0.00 66 1017.2
20201203034711 36 355 1.0 5.0 0.00 0.00 0.00 66 1016.9
20201203033124 36 276 0.0 7.0 0.00 0.00 0.00 66 1016.9
20201203031636 36 307 0.0 4.0 0.00 0.00 0.00 67 1016.7
20201203030031 36 4 0.0 5.0 0.00 0.00 0.00 67 1016.3
20201203024605 36 322 0.0 5.0 0.00 0.00 0.00 70 1016.3
20201203023044 35 260 0.0 4.0 0.00 0.00 0.00 74 1016.2
20201203021546 35 319 0.0 2.0 0.00 0.00 0.00 77 1015.7
20201203020033 34 315 0.0 3.0 0.00 0.00 0.00 79 1015.6
20201203014540 35 236 0.0 0.0 0.00 0.00 0.00 78 1015.5
20201203013043 36 237 0.0 0.0 0.00 0.00 0.00 76 1015.3